sensor_id;sensor_type;location;lat;lon;timestamp;temperature;humidity
62916;DHT22;49010;51.230;-2.306;2022-07-29T00:00:26;18.00;61.60
62916;DHT22;49010;51.230;-2.306;2022-07-29T00:04:08;17.90;61.80
62916;DHT22;49010;51.230;-2.306;2022-07-29T00:07:50;17.80;62.20
62916;DHT22;49010;51.230;-2.306;2022-07-29T00:11:32;17.70;62.60
62916;DHT22;49010;51.230;-2.306;2022-07-29T00:15:14;17.70;62.30
62916;DHT22;49010;51.230;-2.306;2022-07-29T00:18:56;17.60;62.50
62916;DHT22;49010;51.230;-2.306;2022-07-29T00:22:43;17.50;62.70
62916;DHT22;49010;51.230;-2.306;2022-07-29T00:26:25;17.40;62.70
62916;DHT22;49010;51.230;-2.306;2022-07-29T00:30:09;17.40;63.10
62916;DHT22;49010;51.230;-2.306;2022-07-29T00:33:51;17.30;63.20
62916;DHT22;49010;51.230;-2.306;2022-07-29T00:37:33;17.20;63.60
62916;DHT22;49010;51.230;-2.306;2022-07-29T00:41:15;17.10;63.60
62916;DHT22;49010;51.230;-2.306;2022-07-29T00:44:57;17.00;64.10
62916;DHT22;49010;51.230;-2.306;2022-07-29T00:48:39;17.00;64.50
62916;DHT22;49010;51.230;-2.306;2022-07-29T00:52:21;16.90;64.80
62916;DHT22;49010;51.230;-2.306;2022-07-29T00:56:03;16.80;64.90
62916;DHT22;49010;51.230;-2.306;2022-07-29T00:59:45;16.70;65.10
62916;DHT22;49010;51.230;-2.306;2022-07-29T01:03:27;16.70;65.60
62916;DHT22;49010;51.230;-2.306;2022-07-29T01:07:10;16.60;65.70
62916;DHT22;49010;51.230;-2.306;2022-07-29T01:10:53;16.50;66.10
62916;DHT22;49010;51.230;-2.306;2022-07-29T01:14:37;16.50;66.30
62916;DHT22;49010;51.230;-2.306;2022-07-29T01:18:30;16.40;66.60
62916;DHT22;49010;51.230;-2.306;2022-07-29T01:30:13;16.20;67.00
62916;DHT22;49010;51.230;-2.306;2022-07-29T01:33:58;16.20;67.10
62916;DHT22;49010;51.230;-2.306;2022-07-29T01:41:32;16.10;67.50
62916;DHT22;49010;51.230;-2.306;2022-07-29T01:49:37;16.10;66.90
62916;DHT22;49010;51.230;-2.306;2022-07-29T01:53:30;16.00;67.70
62916;DHT22;49010;51.230;-2.306;2022-07-29T01:57:21;16.00;67.80
62916;DHT22;49010;51.230;-2.306;2022-07-29T02:01:08;15.90;68.20
62916;DHT22;49010;51.230;-2.306;2022-07-29T02:04:50;15.90;68.50
62916;DHT22;49010;51.230;-2.306;2022-07-29T02:08:34;15.80;68.50
62916;DHT22;49010;51.230;-2.306;2022-07-29T02:12:19;15.80;68.70
62916;DHT22;49010;51.230;-2.306;2022-07-29T02:16:05;15.80;69.00
62916;DHT22;49010;51.230;-2.306;2022-07-29T02:19:49;15.70;69.10
62916;DHT22;49010;51.230;-2.306;2022-07-29T02:23:35;15.70;69.20
62916;DHT22;49010;51.230;-2.306;2022-07-29T02:27:33;15.70;69.70
62916;DHT22;49010;51.230;-2.306;2022-07-29T02:31:17;15.60;69.70
62916;DHT22;49010;51.230;-2.306;2022-07-29T02:35:02;15.60;70.10
62916;DHT22;49010;51.230;-2.306;2022-07-29T02:38:44;15.60;70.10
62916;DHT22;49010;51.230;-2.306;2022-07-29T02:42:36;15.60;70.10
62916;DHT22;49010;51.230;-2.306;2022-07-29T02:46:27;15.60;70.20
62916;DHT22;49010;51.230;-2.306;2022-07-29T02:50:33;15.60;70.20
62916;DHT22;49010;51.230;-2.306;2022-07-29T02:54:44;15.60;69.50
62916;DHT22;49010;51.230;-2.306;2022-07-29T02:58:34;15.60;70.20
62916;DHT22;49010;51.230;-2.306;2022-07-29T03:02:18;15.60;70.00
62916;DHT22;49010;51.230;-2.306;2022-07-29T03:06:02;15.60;70.40
62916;DHT22;49010;51.230;-2.306;2022-07-29T03:09:45;15.60;70.80
62916;DHT22;49010;51.230;-2.306;2022-07-29T03:13:28;15.60;70.90
62916;DHT22;49010;51.230;-2.306;2022-07-29T03:17:11;15.50;70.80
62916;DHT22;49010;51.230;-2.306;2022-07-29T03:20:53;15.50;71.30
62916;DHT22;49010;51.230;-2.306;2022-07-29T03:24:36;15.50;70.80
62916;DHT22;49010;51.230;-2.306;2022-07-29T03:28:19;15.50;70.80
62916;DHT22;49010;51.230;-2.306;2022-07-29T03:32:04;15.50;70.90
62916;DHT22;49010;51.230;-2.306;2022-07-29T03:35:49;15.50;71.10
62916;DHT22;49010;51.230;-2.306;2022-07-29T03:39:35;15.40;71.40
62916;DHT22;49010;51.230;-2.306;2022-07-29T03:43:18;15.40;71.20
62916;DHT22;49010;51.230;-2.306;2022-07-29T03:47:01;15.40;71.10
62916;DHT22;49010;51.230;-2.306;2022-07-29T03:50:44;15.40;71.40
62916;DHT22;49010;51.230;-2.306;2022-07-29T03:54:26;15.30;71.50
62916;DHT22;49010;51.230;-2.306;2022-07-29T03:58:09;15.30;71.50
62916;DHT22;49010;51.230;-2.306;2022-07-29T04:01:51;15.30;71.70
62916;DHT22;49010;51.230;-2.306;2022-07-29T04:05:33;15.20;71.60
62916;DHT22;49010;51.230;-2.306;2022-07-29T04:09:15;15.20;72.00
62916;DHT22;49010;51.230;-2.306;2022-07-29T04:12:58;15.20;72.10
62916;DHT22;49010;51.230;-2.306;2022-07-29T04:16:40;15.20;72.50
62916;DHT22;49010;51.230;-2.306;2022-07-29T04:20:21;15.10;72.50
62916;DHT22;49010;51.230;-2.306;2022-07-29T04:24:03;15.10;72.50
62916;DHT22;49010;51.230;-2.306;2022-07-29T04:27:46;15.10;72.30
62916;DHT22;49010;51.230;-2.306;2022-07-29T04:31:43;15.10;72.00
62916;DHT22;49010;51.230;-2.306;2022-07-29T04:35:26;15.10;72.10
62916;DHT22;49010;51.230;-2.306;2022-07-29T04:39:08;15.10;72.20
62916;DHT22;49010;51.230;-2.306;2022-07-29T04:42:49;15.00;72.40
62916;DHT22;49010;51.230;-2.306;2022-07-29T04:46:32;15.00;72.50
62916;DHT22;49010;51.230;-2.306;2022-07-29T04:50:14;15.00;72.80
62916;DHT22;49010;51.230;-2.306;2022-07-29T04:53:56;15.00;73.00
62916;DHT22;49010;51.230;-2.306;2022-07-29T04:57:38;15.00;73.10
62916;DHT22;49010;51.230;-2.306;2022-07-29T05:01:19;15.00;73.10
62916;DHT22;49010;51.230;-2.306;2022-07-29T05:05:01;15.00;73.20
62916;DHT22;49010;51.230;-2.306;2022-07-29T05:08:43;15.00;73.30
62916;DHT22;49010;51.230;-2.306;2022-07-29T05:12:25;15.00;73.30
62916;DHT22;49010;51.230;-2.306;2022-07-29T05:16:08;14.90;73.30
62916;DHT22;49010;51.230;-2.306;2022-07-29T05:19:50;14.90;73.50
62916;DHT22;49010;51.230;-2.306;2022-07-29T05:23:32;14.90;73.50
62916;DHT22;49010;51.230;-2.306;2022-07-29T05:27:14;14.90;73.40
62916;DHT22;49010;51.230;-2.306;2022-07-29T05:30:56;14.90;73.60
62916;DHT22;49010;51.230;-2.306;2022-07-29T05:34:38;14.90;74.00
62916;DHT22;49010;51.230;-2.306;2022-07-29T05:38:32;14.90;74.20
62916;DHT22;49010;51.230;-2.306;2022-07-29T05:42:14;15.00;74.30
62916;DHT22;49010;51.230;-2.306;2022-07-29T05:45:57;15.00;74.00
62916;DHT22;49010;51.230;-2.306;2022-07-29T05:49:39;15.10;74.20
62916;DHT22;49010;51.230;-2.306;2022-07-29T05:53:21;15.10;74.20
62916;DHT22;49010;51.230;-2.306;2022-07-29T05:57:03;15.10;74.20
62916;DHT22;49010;51.230;-2.306;2022-07-29T06:00:45;15.10;74.30
62916;DHT22;49010;51.230;-2.306;2022-07-29T06:04:27;15.10;74.20
62916;DHT22;49010;51.230;-2.306;2022-07-29T06:08:09;15.20;74.50
62916;DHT22;49010;51.230;-2.306;2022-07-29T06:11:51;15.20;74.60
62916;DHT22;49010;51.230;-2.306;2022-07-29T06:15:33;15.30;74.70
62916;DHT22;49010;51.230;-2.306;2022-07-29T06:19:16;15.30;74.50
62916;DHT22;49010;51.230;-2.306;2022-07-29T06:22:58;15.40;74.40
62916;DHT22;49010;51.230;-2.306;2022-07-29T06:26:40;15.50;74.40
62916;DHT22;49010;51.230;-2.306;2022-07-29T06:30:24;15.60;74.40
62916;DHT22;49010;51.230;-2.306;2022-07-29T06:34:06;15.60;74.70
62916;DHT22;49010;51.230;-2.306;2022-07-29T06:37:48;15.70;73.80
62916;DHT22;49010;51.230;-2.306;2022-07-29T06:41:34;15.80;73.70
62916;DHT22;49010;51.230;-2.306;2022-07-29T06:45:17;16.10;73.40
62916;DHT22;49010;51.230;-2.306;2022-07-29T06:48:59;16.60;72.10
62916;DHT22;49010;51.230;-2.306;2022-07-29T06:52:43;17.20;70.00
62916;DHT22;49010;51.230;-2.306;2022-07-29T06:56:25;17.90;68.70
62916;DHT22;49010;51.230;-2.306;2022-07-29T07:00:07;18.50;67.20
62916;DHT22;49010;51.230;-2.306;2022-07-29T07:03:49;19.00;66.10
62916;DHT22;49010;51.230;-2.306;2022-07-29T07:07:31;19.30;65.40
62916;DHT22;49010;51.230;-2.306;2022-07-29T07:11:13;19.60;64.20
62916;DHT22;49010;51.230;-2.306;2022-07-29T07:14:55;20.00;62.50
62916;DHT22;49010;51.230;-2.306;2022-07-29T07:18:37;20.20;62.20
62916;DHT22;49010;51.230;-2.306;2022-07-29T07:22:19;20.30;61.60
62916;DHT22;49010;51.230;-2.306;2022-07-29T07:26:00;20.40;61.70
62916;DHT22;49010;51.230;-2.306;2022-07-29T07:29:42;20.40;61.70
62916;DHT22;49010;51.230;-2.306;2022-07-29T07:33:24;20.70;61.80
62916;DHT22;49010;51.230;-2.306;2022-07-29T07:37:06;20.80;60.60
62916;DHT22;49010;51.230;-2.306;2022-07-29T07:40:48;20.70;60.70
62916;DHT22;49010;51.230;-2.306;2022-07-29T07:44:30;20.80;60.50
62916;DHT22;49010;51.230;-2.306;2022-07-29T07:48:12;21.00;60.00
62916;DHT22;49010;51.230;-2.306;2022-07-29T07:51:54;21.20;59.90
62916;DHT22;49010;51.230;-2.306;2022-07-29T07:55:43;21.20;59.60
62916;DHT22;49010;51.230;-2.306;2022-07-29T07:59:45;21.00;60.20
62916;DHT22;49010;51.230;-2.306;2022-07-29T08:03:26;20.70;61.10
62916;DHT22;49010;51.230;-2.306;2022-07-29T08:07:08;20.50;61.60
62916;DHT22;49010;51.230;-2.306;2022-07-29T08:10:50;20.40;62.20
62916;DHT22;49010;51.230;-2.306;2022-07-29T08:14:35;20.30;62.50
62916;DHT22;49010;51.230;-2.306;2022-07-29T08:18:17;20.20;63.20
62916;DHT22;49010;51.230;-2.306;2022-07-29T08:21:59;20.20;63.20
62916;DHT22;49010;51.230;-2.306;2022-07-29T08:25:41;20.10;62.70
62916;DHT22;49010;51.230;-2.306;2022-07-29T08:29:23;20.00;63.80
62916;DHT22;49010;51.230;-2.306;2022-07-29T08:33:05;20.00;63.10
62916;DHT22;49010;51.230;-2.306;2022-07-29T08:36:47;20.00;63.60
62916;DHT22;49010;51.230;-2.306;2022-07-29T08:40:32;19.90;63.20
62916;DHT22;49010;51.230;-2.306;2022-07-29T08:44:18;19.90;63.20
62916;DHT22;49010;51.230;-2.306;2022-07-29T08:48:15;20.00;63.30
62916;DHT22;49010;51.230;-2.306;2022-07-29T08:51:58;20.10;62.30
62916;DHT22;49010;51.230;-2.306;2022-07-29T08:55:47;20.30;61.90
62916;DHT22;49010;51.230;-2.306;2022-07-29T08:59:30;20.40;62.10
62916;DHT22;49010;51.230;-2.306;2022-07-29T09:03:17;20.40;61.80
62916;DHT22;49010;51.230;-2.306;2022-07-29T09:07:04;20.50;61.70
62916;DHT22;49010;51.230;-2.306;2022-07-29T09:10:47;20.50;62.00
62916;DHT22;49010;51.230;-2.306;2022-07-29T09:14:29;20.50;61.20
62916;DHT22;49010;51.230;-2.306;2022-07-29T09:18:11;20.60;61.80
62916;DHT22;49010;51.230;-2.306;2022-07-29T09:22:11;20.60;62.70
62916;DHT22;49010;51.230;-2.306;2022-07-29T09:25:53;20.70;61.80
62916;DHT22;49010;51.230;-2.306;2022-07-29T09:29:36;20.70;60.90
62916;DHT22;49010;51.230;-2.306;2022-07-29T09:33:19;20.70;60.00
62916;DHT22;49010;51.230;-2.306;2022-07-29T09:37:00;20.80;59.80
62916;DHT22;49010;51.230;-2.306;2022-07-29T09:40:56;21.00;60.00
62916;DHT22;49010;51.230;-2.306;2022-07-29T09:44:50;21.10;59.60
62916;DHT22;49010;51.230;-2.306;2022-07-29T09:48:32;21.30;57.60
62916;DHT22;49010;51.230;-2.306;2022-07-29T09:52:14;21.60;55.80
62916;DHT22;49010;51.230;-2.306;2022-07-29T09:55:56;22.50;52.20
62916;DHT22;49010;51.230;-2.306;2022-07-29T09:59:38;23.60;49.30
62916;DHT22;49010;51.230;-2.306;2022-07-29T10:03:31;24.90;45.90
62916;DHT22;49010;51.230;-2.306;2022-07-29T10:07:13;26.30;45.00
62916;DHT22;49010;51.230;-2.306;2022-07-29T10:11:09;27.50;42.60
62916;DHT22;49010;51.230;-2.306;2022-07-29T10:14:51;28.70;43.10
62916;DHT22;49010;51.230;-2.306;2022-07-29T10:18:33;29.60;38.40
62916;DHT22;49010;51.230;-2.306;2022-07-29T10:22:15;30.20;37.20
62916;DHT22;49010;51.230;-2.306;2022-07-29T10:26:18;31.00;35.80
62916;DHT22;49010;51.230;-2.306;2022-07-29T10:30:00;31.90;34.80
62916;DHT22;49010;51.230;-2.306;2022-07-29T10:42:02;33.80;36.00
62916;DHT22;49010;51.230;-2.306;2022-07-29T10:45:55;34.30;38.70
62916;DHT22;49010;51.230;-2.306;2022-07-29T10:50:04;34.90;32.90
62916;DHT22;49010;51.230;-2.306;2022-07-29T10:53:52;35.50;36.50
62916;DHT22;49010;51.230;-2.306;2022-07-29T10:57:34;36.20;30.50
62916;DHT22;49010;51.230;-2.306;2022-07-29T11:01:38;36.70;29.70
62916;DHT22;49010;51.230;-2.306;2022-07-29T11:05:26;37.20;29.60
62916;DHT22;49010;51.230;-2.306;2022-07-29T11:09:21;37.50;29.40
62916;DHT22;49010;51.230;-2.306;2022-07-29T11:13:53;37.80;29.30
62916;DHT22;49010;51.230;-2.306;2022-07-29T11:21:43;38.40;32.40
62916;DHT22;49010;51.230;-2.306;2022-07-29T11:25:38;38.40;27.90
62916;DHT22;49010;51.230;-2.306;2022-07-29T11:29:32;38.40;28.90
62916;DHT22;49010;51.230;-2.306;2022-07-29T11:33:30;38.90;28.30
62916;DHT22;49010;51.230;-2.306;2022-07-29T11:37:32;39.30;28.20
62916;DHT22;49010;51.230;-2.306;2022-07-29T11:41:26;39.50;28.10
62916;DHT22;49010;51.230;-2.306;2022-07-29T11:45:20;39.90;37.40
62916;DHT22;49010;51.230;-2.306;2022-07-29T11:49:27;40.40;27.10
62916;DHT22;49010;51.230;-2.306;2022-07-29T11:53:13;40.60;26.70
62916;DHT22;49010;51.230;-2.306;2022-07-29T11:56:57;40.50;26.50
62916;DHT22;49010;51.230;-2.306;2022-07-29T12:00:40;40.50;25.90
62916;DHT22;49010;51.230;-2.306;2022-07-29T12:04:24;40.50;26.50
62916;DHT22;49010;51.230;-2.306;2022-07-29T12:08:15;40.70;26.00
62916;DHT22;49010;51.230;-2.306;2022-07-29T12:11:59;41.00;26.80
62916;DHT22;49010;51.230;-2.306;2022-07-29T12:15:56;41.10;34.30
62916;DHT22;49010;51.230;-2.306;2022-07-29T12:19:43;41.30;28.30
62916;DHT22;49010;51.230;-2.306;2022-07-29T12:23:26;41.90;26.30
62916;DHT22;49010;51.230;-2.306;2022-07-29T12:27:17;42.40;25.00
62916;DHT22;49010;51.230;-2.306;2022-07-29T12:30:59;42.60;25.40
62916;DHT22;49010;51.230;-2.306;2022-07-29T12:34:42;43.00;24.40
62916;DHT22;49010;51.230;-2.306;2022-07-29T12:38:24;43.40;29.40
62916;DHT22;49010;51.230;-2.306;2022-07-29T12:42:14;43.70;24.90
62916;DHT22;49010;51.230;-2.306;2022-07-29T12:46:12;43.90;25.40
62916;DHT22;49010;51.230;-2.306;2022-07-29T12:50:12;44.10;26.30
62916;DHT22;49010;51.230;-2.306;2022-07-29T12:54:13;44.20;26.00
62916;DHT22;49010;51.230;-2.306;2022-07-29T12:57:55;43.80;25.10
62916;DHT22;49010;51.230;-2.306;2022-07-29T13:01:37;43.30;25.00
62916;DHT22;49010;51.230;-2.306;2022-07-29T13:05:19;43.10;25.10
62916;DHT22;49010;51.230;-2.306;2022-07-29T13:09:21;43.40;24.10
62916;DHT22;49010;51.230;-2.306;2022-07-29T13:13:07;43.60;26.60
62916;DHT22;49010;51.230;-2.306;2022-07-29T13:20:42;43.70;25.30
62916;DHT22;49010;51.230;-2.306;2022-07-29T13:24:24;44.00;24.00
62916;DHT22;49010;51.230;-2.306;2022-07-29T13:28:06;44.20;23.50
62916;DHT22;49010;51.230;-2.306;2022-07-29T13:31:48;44.20;23.60
62916;DHT22;49010;51.230;-2.306;2022-07-29T13:35:29;44.20;23.30
62916;DHT22;49010;51.230;-2.306;2022-07-29T13:39:11;43.70;23.50
62916;DHT22;49010;51.230;-2.306;2022-07-29T13:42:53;42.90;24.90
62916;DHT22;49010;51.230;-2.306;2022-07-29T13:46:35;42.90;24.00
62916;DHT22;49010;51.230;-2.306;2022-07-29T13:50:20;42.50;24.10
62916;DHT22;49010;51.230;-2.306;2022-07-29T13:54:02;42.40;24.50
62916;DHT22;49010;51.230;-2.306;2022-07-29T13:57:44;42.50;24.20
62916;DHT22;49010;51.230;-2.306;2022-07-29T14:01:26;42.60;24.00
62916;DHT22;49010;51.230;-2.306;2022-07-29T14:05:09;42.80;23.80
62916;DHT22;49010;51.230;-2.306;2022-07-29T14:08:51;42.90;23.90
62916;DHT22;49010;51.230;-2.306;2022-07-29T14:12:33;42.80;24.60
62916;DHT22;49010;51.230;-2.306;2022-07-29T14:16:15;43.00;24.10
62916;DHT22;49010;51.230;-2.306;2022-07-29T14:19:57;43.20;23.80
62916;DHT22;49010;51.230;-2.306;2022-07-29T14:23:39;43.10;23.60
62916;DHT22;49010;51.230;-2.306;2022-07-29T14:27:24;42.10;24.50
62916;DHT22;49010;51.230;-2.306;2022-07-29T14:31:19;40.90;24.40
62916;DHT22;49010;51.230;-2.306;2022-07-29T14:35:01;39.80;25.20
62916;DHT22;49010;51.230;-2.306;2022-07-29T14:38:42;38.60;26.50
62916;DHT22;49010;51.230;-2.306;2022-07-29T14:42:25;37.80;27.20
62916;DHT22;49010;51.230;-2.306;2022-07-29T14:46:07;37.30;27.40
62916;DHT22;49010;51.230;-2.306;2022-07-29T14:49:49;36.80;28.00
62916;DHT22;49010;51.230;-2.306;2022-07-29T14:53:31;36.50;27.70
62916;DHT22;49010;51.230;-2.306;2022-07-29T14:57:14;36.10;27.70
62916;DHT22;49010;51.230;-2.306;2022-07-29T15:00:57;35.80;28.50
62916;DHT22;49010;51.230;-2.306;2022-07-29T15:04:39;35.60;29.30
62916;DHT22;49010;51.230;-2.306;2022-07-29T15:08:21;35.50;28.80
62916;DHT22;49010;51.230;-2.306;2022-07-29T15:12:03;35.40;28.50
62916;DHT22;49010;51.230;-2.306;2022-07-29T15:15:46;35.40;28.90
62916;DHT22;49010;51.230;-2.306;2022-07-29T15:19:27;35.70;28.90
62916;DHT22;49010;51.230;-2.306;2022-07-29T15:23:09;35.80;29.00
62916;DHT22;49010;51.230;-2.306;2022-07-29T15:26:51;35.80;28.40
62916;DHT22;49010;51.230;-2.306;2022-07-29T15:30:34;35.80;28.90
62916;DHT22;49010;51.230;-2.306;2022-07-29T15:34:21;35.70;28.40
62916;DHT22;49010;51.230;-2.306;2022-07-29T15:38:04;35.50;28.80
62916;DHT22;49010;51.230;-2.306;2022-07-29T15:41:46;35.50;29.40
62916;DHT22;49010;51.230;-2.306;2022-07-29T15:45:28;35.60;29.40
62916;DHT22;49010;51.230;-2.306;2022-07-29T15:49:14;35.50;28.60
62916;DHT22;49010;51.230;-2.306;2022-07-29T15:52:56;35.30;29.20
62916;DHT22;49010;51.230;-2.306;2022-07-29T15:56:37;35.10;29.40
62916;DHT22;49010;51.230;-2.306;2022-07-29T16:00:19;35.00;29.80
62916;DHT22;49010;51.230;-2.306;2022-07-29T16:04:03;35.00;30.80
62916;DHT22;49010;51.230;-2.306;2022-07-29T16:07:45;34.80;32.50
62916;DHT22;49010;51.230;-2.306;2022-07-29T16:11:27;34.50;31.70
62916;DHT22;49010;51.230;-2.306;2022-07-29T16:15:09;34.20;32.00
62916;DHT22;49010;51.230;-2.306;2022-07-29T16:18:51;33.90;33.10
62916;DHT22;49010;51.230;-2.306;2022-07-29T16:22:33;33.60;33.40
62916;DHT22;49010;51.230;-2.306;2022-07-29T16:26:15;33.30;34.40
62916;DHT22;49010;51.230;-2.306;2022-07-29T16:30:00;33.00;34.40
62916;DHT22;49010;51.230;-2.306;2022-07-29T16:33:42;32.80;34.80
62916;DHT22;49010;51.230;-2.306;2022-07-29T16:37:36;32.60;35.20
62916;DHT22;49010;51.230;-2.306;2022-07-29T16:41:18;32.60;35.70
62916;DHT22;49010;51.230;-2.306;2022-07-29T16:45:00;32.40;35.50
62916;DHT22;49010;51.230;-2.306;2022-07-29T16:48:43;32.30;35.30
62916;DHT22;49010;51.230;-2.306;2022-07-29T16:52:25;32.20;35.90
62916;DHT22;49010;51.230;-2.306;2022-07-29T16:56:09;32.20;36.10
62916;DHT22;49010;51.230;-2.306;2022-07-29T16:59:53;32.20;35.50
62916;DHT22;49010;51.230;-2.306;2022-07-29T17:03:35;32.10;35.50
62916;DHT22;49010;51.230;-2.306;2022-07-29T17:07:41;32.00;35.80
62916;DHT22;49010;51.230;-2.306;2022-07-29T17:11:23;31.90;36.30
62916;DHT22;49010;51.230;-2.306;2022-07-29T17:15:25;31.90;35.80
62916;DHT22;49010;51.230;-2.306;2022-07-29T17:19:07;31.80;36.30
62916;DHT22;49010;51.230;-2.306;2022-07-29T17:22:48;31.70;36.40
62916;DHT22;49010;51.230;-2.306;2022-07-29T17:26:30;31.60;37.30
62916;DHT22;49010;51.230;-2.306;2022-07-29T17:30:12;31.50;36.90
62916;DHT22;49010;51.230;-2.306;2022-07-29T17:33:54;31.40;37.90
62916;DHT22;49010;51.230;-2.306;2022-07-29T17:37:40;31.30;38.50
62916;DHT22;49010;51.230;-2.306;2022-07-29T17:41:23;31.10;38.20
62916;DHT22;49010;51.230;-2.306;2022-07-29T17:45:05;30.90;39.00
62916;DHT22;49010;51.230;-2.306;2022-07-29T17:48:47;30.90;38.50
62916;DHT22;49010;51.230;-2.306;2022-07-29T17:52:30;30.80;38.70
62916;DHT22;49010;51.230;-2.306;2022-07-29T17:56:12;30.80;39.40
62916;DHT22;49010;51.230;-2.306;2022-07-29T17:59:54;30.60;38.40
62916;DHT22;49010;51.230;-2.306;2022-07-29T18:03:36;30.40;38.70
62916;DHT22;49010;51.230;-2.306;2022-07-29T18:07:18;30.20;39.00
62916;DHT22;49010;51.230;-2.306;2022-07-29T18:11:00;30.10;38.70
62916;DHT22;49010;51.230;-2.306;2022-07-29T18:14:42;30.00;38.70
62916;DHT22;49010;51.230;-2.306;2022-07-29T18:18:24;29.90;40.10
62916;DHT22;49010;51.230;-2.306;2022-07-29T18:22:06;29.70;39.60
62916;DHT22;49010;51.230;-2.306;2022-07-29T18:25:50;29.50;39.70
62916;DHT22;49010;51.230;-2.306;2022-07-29T18:29:32;29.40;39.60
62916;DHT22;49010;51.230;-2.306;2022-07-29T18:33:14;29.20;39.90
62916;DHT22;49010;51.230;-2.306;2022-07-29T18:37:03;29.10;39.20
62916;DHT22;49010;51.230;-2.306;2022-07-29T18:40:45;29.00;39.70
62916;DHT22;49010;51.230;-2.306;2022-07-29T18:44:27;28.90;40.10
62916;DHT22;49010;51.230;-2.306;2022-07-29T18:48:10;28.70;40.30
62916;DHT22;49010;51.230;-2.306;2022-07-29T18:51:54;28.60;40.40
62916;DHT22;49010;51.230;-2.306;2022-07-29T18:55:37;28.60;40.40
62916;DHT22;49010;51.230;-2.306;2022-07-29T18:59:19;28.60;40.20
62916;DHT22;49010;51.230;-2.306;2022-07-29T19:03:02;28.50;40.80
62916;DHT22;49010;51.230;-2.306;2022-07-29T19:06:44;28.50;40.80
62916;DHT22;49010;51.230;-2.306;2022-07-29T19:10:26;28.40;40.80
62916;DHT22;49010;51.230;-2.306;2022-07-29T19:14:08;28.40;40.80
62916;DHT22;49010;51.230;-2.306;2022-07-29T19:17:50;28.20;41.50
62916;DHT22;49010;51.230;-2.306;2022-07-29T19:21:32;28.10;41.20
62916;DHT22;49010;51.230;-2.306;2022-07-29T19:25:14;28.00;41.00
62916;DHT22;49010;51.230;-2.306;2022-07-29T19:28:56;27.70;40.90
62916;DHT22;49010;51.230;-2.306;2022-07-29T19:32:37;27.60;40.70
62916;DHT22;49010;51.230;-2.306;2022-07-29T19:36:19;27.50;42.10
62916;DHT22;49010;51.230;-2.306;2022-07-29T19:40:02;27.30;42.40
62916;DHT22;49010;51.230;-2.306;2022-07-29T19:43:44;27.20;42.00
62916;DHT22;49010;51.230;-2.306;2022-07-29T19:47:32;27.10;42.60
62916;DHT22;49010;51.230;-2.306;2022-07-29T19:51:14;27.00;43.60
62916;DHT22;49010;51.230;-2.306;2022-07-29T19:54:57;26.90;44.20
62916;DHT22;49010;51.230;-2.306;2022-07-29T19:58:39;26.80;44.80
62916;DHT22;49010;51.230;-2.306;2022-07-29T20:02:21;26.70;45.40
62916;DHT22;49010;51.230;-2.306;2022-07-29T20:06:04;26.60;45.10
62916;DHT22;49010;51.230;-2.306;2022-07-29T20:09:45;26.50;45.40
62916;DHT22;49010;51.230;-2.306;2022-07-29T20:13:28;26.40;45.80
62916;DHT22;49010;51.230;-2.306;2022-07-29T20:17:12;26.30;46.10
62916;DHT22;49010;51.230;-2.306;2022-07-29T20:20:54;26.10;46.10
62916;DHT22;49010;51.230;-2.306;2022-07-29T20:24:38;26.00;46.90
62916;DHT22;49010;51.230;-2.306;2022-07-29T20:28:19;25.90;47.10
62916;DHT22;49010;51.230;-2.306;2022-07-29T20:32:02;25.70;47.50
62916;DHT22;49010;51.230;-2.306;2022-07-29T20:35:44;25.60;47.70
62916;DHT22;49010;51.230;-2.306;2022-07-29T20:39:27;25.50;48.10
62916;DHT22;49010;51.230;-2.306;2022-07-29T20:43:09;25.30;48.50
62916;DHT22;49010;51.230;-2.306;2022-07-29T20:46:51;25.20;49.00
62916;DHT22;49010;51.230;-2.306;2022-07-29T20:50:34;25.10;49.50
62916;DHT22;49010;51.230;-2.306;2022-07-29T20:54:15;25.00;50.00
62916;DHT22;49010;51.230;-2.306;2022-07-29T20:57:57;24.90;50.10
62916;DHT22;49010;51.230;-2.306;2022-07-29T21:01:39;24.70;50.80
62916;DHT22;49010;51.230;-2.306;2022-07-29T21:05:22;24.60;51.40
62916;DHT22;49010;51.230;-2.306;2022-07-29T21:09:04;24.50;51.90
62916;DHT22;49010;51.230;-2.306;2022-07-29T21:12:46;24.40;52.40
62916;DHT22;49010;51.230;-2.306;2022-07-29T21:16:28;24.30;52.90
62916;DHT22;49010;51.230;-2.306;2022-07-29T21:20:13;24.20;53.30
62916;DHT22;49010;51.230;-2.306;2022-07-29T21:23:55;24.10;53.50
62916;DHT22;49010;51.230;-2.306;2022-07-29T21:27:37;24.00;53.70
62916;DHT22;49010;51.230;-2.306;2022-07-29T21:31:38;23.90;53.90
62916;DHT22;49010;51.230;-2.306;2022-07-29T21:35:21;23.80;53.90
62916;DHT22;49010;51.230;-2.306;2022-07-29T21:39:23;23.70;53.90
62916;DHT22;49010;51.230;-2.306;2022-07-29T21:43:05;23.60;54.00
62916;DHT22;49010;51.230;-2.306;2022-07-29T21:46:48;23.50;54.20
62916;DHT22;49010;51.230;-2.306;2022-07-29T21:50:30;23.40;54.60
62916;DHT22;49010;51.230;-2.306;2022-07-29T21:54:12;23.30;54.80
62916;DHT22;49010;51.230;-2.306;2022-07-29T21:57:54;23.10;55.20
62916;DHT22;49010;51.230;-2.306;2022-07-29T22:01:36;23.00;55.40
62916;DHT22;49010;51.230;-2.306;2022-07-29T22:05:20;22.90;56.10
62916;DHT22;49010;51.230;-2.306;2022-07-29T22:09:02;22.80;56.70
62916;DHT22;49010;51.230;-2.306;2022-07-29T22:12:44;22.60;56.90
62916;DHT22;49010;51.230;-2.306;2022-07-29T22:16:26;22.50;57.40
62916;DHT22;49010;51.230;-2.306;2022-07-29T22:20:08;22.40;57.60
62916;DHT22;49010;51.230;-2.306;2022-07-29T22:23:50;22.30;57.80
62916;DHT22;49010;51.230;-2.306;2022-07-29T22:27:33;22.20;58.30
62916;DHT22;49010;51.230;-2.306;2022-07-29T22:31:15;22.00;58.60
62916;DHT22;49010;51.230;-2.306;2022-07-29T22:34:56;21.90;59.00
62916;DHT22;49010;51.230;-2.306;2022-07-29T22:38:38;21.70;59.40
62916;DHT22;49010;51.230;-2.306;2022-07-29T22:42:20;21.70;59.70
62916;DHT22;49010;51.230;-2.306;2022-07-29T22:46:02;21.60;60.00
62916;DHT22;49010;51.230;-2.306;2022-07-29T22:49:44;21.50;59.90
62916;DHT22;49010;51.230;-2.306;2022-07-29T22:53:26;21.50;60.10
62916;DHT22;49010;51.230;-2.306;2022-07-29T22:57:08;21.50;60.10
62916;DHT22;49010;51.230;-2.306;2022-07-29T23:00:50;21.40;60.10
62916;DHT22;49010;51.230;-2.306;2022-07-29T23:04:32;21.40;60.50
62916;DHT22;49010;51.230;-2.306;2022-07-29T23:08:14;21.40;60.70
62916;DHT22;49010;51.230;-2.306;2022-07-29T23:11:56;21.30;61.10
62916;DHT22;49010;51.230;-2.306;2022-07-29T23:15:38;21.20;61.60
62916;DHT22;49010;51.230;-2.306;2022-07-29T23:19:19;21.10;62.10
62916;DHT22;49010;51.230;-2.306;2022-07-29T23:23:01;21.00;62.50
62916;DHT22;49010;51.230;-2.306;2022-07-29T23:26:43;20.90;62.80
62916;DHT22;49010;51.230;-2.306;2022-07-29T23:30:26;20.80;63.20
62916;DHT22;49010;51.230;-2.306;2022-07-29T23:34:08;20.70;63.30
62916;DHT22;49010;51.230;-2.306;2022-07-29T23:37:50;20.60;63.60
62916;DHT22;49010;51.230;-2.306;2022-07-29T23:41:31;20.60;64.10
62916;DHT22;49010;51.230;-2.306;2022-07-29T23:45:13;20.60;64.00